createdAt,value
2018-03-02T00:00:53.520Z,4.20
2018-03-02T00:03:23.157Z,4.30
2018-03-02T00:05:52.296Z,4.20
2018-03-02T00:08:21.314Z,4.20
2018-03-02T00:10:50.237Z,4.30
2018-03-02T00:13:20.086Z,4.30
2018-03-02T00:15:48.850Z,4.20
2018-03-02T00:18:17.723Z,4.20
2018-03-02T00:20:46.571Z,4.10
2018-03-02T00:23:15.740Z,4.10
2018-03-02T00:25:44.736Z,4.10
2018-03-02T00:28:13.471Z,4.00
2018-03-02T00:30:42.387Z,4.00
2018-03-02T00:33:11.222Z,4.00
2018-03-02T00:35:40.858Z,4.10
2018-03-02T00:38:09.702Z,4.10
2018-03-02T00:40:38.637Z,4.10
2018-03-02T00:43:07.532Z,4.10
2018-03-02T00:45:37.152Z,4.00
2018-03-02T00:48:06.019Z,4.00
2018-03-02T00:50:34.942Z,4.00
2018-03-02T00:53:05.016Z,4.10
2018-03-02T00:55:34.880Z,4.10
2018-03-02T00:58:03.762Z,4.10
2018-03-02T01:00:33.374Z,4.10
2018-03-02T01:03:02.286Z,4.00
2018-03-02T01:05:31.098Z,3.90
2018-03-02T01:07:59.919Z,3.80
2018-03-02T01:10:28.699Z,3.70
2018-03-02T01:12:58.871Z,3.80
2018-03-02T01:15:27.980Z,3.70
2018-03-02T01:17:57.026Z,3.80
2018-03-02T01:20:25.824Z,3.90
2018-03-02T01:22:54.720Z,3.90
2018-03-02T01:25:24.339Z,3.80
2018-03-02T01:27:53.238Z,3.80
2018-03-02T01:30:22.901Z,3.90
2018-03-02T01:32:52.008Z,3.80
2018-03-02T01:35:21.545Z,3.90
2018-03-02T01:37:50.366Z,3.90
2018-03-02T01:40:19.166Z,3.90
2018-03-02T01:42:48.262Z,3.90
2018-03-02T01:45:17.226Z,3.90
2018-03-02T01:47:46.142Z,3.90
2018-03-02T01:50:14.976Z,4.00
2018-03-02T01:52:43.816Z,4.00
2018-03-02T01:55:12.630Z,3.90
2018-03-02T01:57:41.739Z,3.80
2018-03-02T02:00:10.629Z,3.80
2018-03-02T02:02:39.538Z,3.80
2018-03-02T02:05:09.367Z,3.90
2018-03-02T02:07:38.281Z,3.80
2018-03-02T02:10:07.967Z,3.90
2018-03-02T02:12:37.139Z,3.80
2018-03-02T02:15:06.683Z,4.20
2018-03-02T02:17:35.609Z,4.20
2018-03-02T02:20:05.239Z,4.30
2018-03-02T02:22:35.070Z,4.30
2018-03-02T02:25:04.067Z,4.30
2018-03-02T02:27:33.241Z,4.20
2018-03-02T02:30:02.026Z,4.10
2018-03-02T02:32:31.616Z,4.00
2018-03-02T02:35:00.435Z,4.00
2018-03-02T02:37:29.522Z,4.10
2018-03-02T02:39:59.142Z,4.20
2018-03-02T02:42:28.082Z,4.20
2018-03-02T02:44:56.945Z,4.30
2018-03-02T02:47:25.766Z,4.30
2018-03-02T02:49:54.586Z,4.20
2018-03-02T02:52:23.485Z,4.20
2018-03-02T02:54:52.236Z,4.20
2018-03-02T02:57:21.214Z,4.30
2018-03-02T02:59:50.045Z,4.30
2018-03-02T03:02:19.683Z,4.50
2018-03-02T03:04:48.436Z,4.50
2018-03-02T03:07:17.523Z,4.60
2018-03-02T03:09:47.326Z,4.70
2018-03-02T03:12:16.330Z,4.70
2018-03-02T03:14:45.219Z,4.70
2018-03-02T03:17:15.134Z,4.70
2018-03-02T03:19:44.175Z,4.70
2018-03-02T03:22:13.102Z,4.80
2018-03-02T03:24:42.030Z,4.80
2018-03-02T03:27:11.930Z,4.70
2018-03-02T03:29:41.055Z,4.70
2018-03-02T03:32:10.122Z,4.80
2018-03-02T03:34:38.863Z,4.80
2018-03-02T03:37:07.884Z,4.60
2018-03-02T03:39:37.481Z,4.70
2018-03-02T03:42:06.542Z,4.70
2018-03-02T03:44:36.409Z,4.30
2018-03-02T03:47:05.202Z,4.30
2018-03-02T03:49:34.050Z,4.20
2018-03-02T03:52:02.822Z,4.20
2018-03-02T03:54:31.616Z,4.20
2018-03-02T03:57:00.363Z,4.20
2018-03-02T03:59:30.112Z,4.70
2018-03-02T04:01:59.194Z,4.60
2018-03-02T04:04:28.040Z,4.70
2018-03-02T04:06:56.920Z,4.70
2018-03-02T04:09:26.195Z,4.80
2018-03-02T04:11:55.030Z,4.90
2018-03-02T04:14:24.785Z,4.80
2018-03-02T04:16:53.893Z,4.80
2018-03-02T04:19:22.660Z,4.70
2018-03-02T04:21:51.481Z,4.50
2018-03-02T04:24:20.477Z,4.50
2018-03-02T04:26:49.700Z,4.50
2018-03-02T04:29:18.575Z,4.80
2018-03-02T04:31:47.805Z,4.90
2018-03-02T04:34:16.704Z,4.90
2018-03-02T04:36:45.882Z,4.80
2018-03-02T04:39:14.870Z,5.00
2018-03-02T04:41:43.898Z,5.10
2018-03-02T04:44:12.771Z,5.10
2018-03-02T04:46:41.640Z,5.10
2018-03-02T04:49:11.236Z,5.20
2018-03-02T04:51:40.887Z,5.20
2018-03-02T04:54:10.370Z,5.20
2018-03-02T04:56:39.237Z,5.20
2018-03-02T04:59:08.080Z,5.10
2018-03-02T05:01:37.080Z,5.10
2018-03-02T05:04:06.027Z,5.10
2018-03-02T05:06:35.023Z,5.10
2018-03-02T05:09:04.225Z,5.10
2018-03-02T05:11:33.117Z,5.20
2018-03-02T05:14:02.046Z,5.10
2018-03-02T05:16:30.909Z,5.10
2018-03-02T05:18:59.817Z,5.20
2018-03-02T05:21:28.907Z,5.10
2018-03-02T05:23:58.796Z,5.10
2018-03-02T05:26:28.447Z,5.20
2018-03-02T05:28:57.315Z,5.20
2018-03-02T05:31:26.221Z,5.20
2018-03-02T05:33:55.800Z,5.20
2018-03-02T05:36:25.505Z,5.40
2018-03-02T05:38:54.489Z,5.40
2018-03-02T05:41:23.282Z,5.70
2018-03-02T05:43:52.374Z,6.00
2018-03-02T05:46:21.211Z,6.20
2018-03-02T05:48:50.162Z,6.40
2018-03-02T05:51:19.097Z,6.60
2018-03-02T05:53:47.960Z,6.70
2018-03-02T05:56:16.838Z,6.70
2018-03-02T05:58:46.453Z,7.00
2018-03-02T06:01:15.302Z,6.90
2018-03-02T06:03:44.162Z,7.00
2018-03-02T06:06:13.138Z,7.20
2018-03-02T06:08:42.304Z,7.30
2018-03-02T06:11:12.115Z,7.50
2018-03-02T06:13:41.000Z,7.50
2018-03-02T06:16:10.153Z,7.50
2018-03-02T06:18:38.947Z,7.60
2018-03-02T06:21:07.986Z,7.70
2018-03-02T06:23:37.025Z,7.80
2018-03-02T06:26:05.842Z,7.70
2018-03-02T06:28:34.719Z,7.60
2018-03-02T06:31:03.601Z,7.60
2018-03-02T06:33:32.458Z,7.80
2018-03-02T06:36:02.032Z,7.90
2018-03-02T06:38:31.082Z,8.00
2018-03-02T06:40:59.846Z,8.10
2018-03-02T06:43:29.464Z,8.30
2018-03-02T06:45:58.578Z,8.30
2018-03-02T06:48:27.478Z,8.30
2018-03-02T06:50:56.467Z,8.50
2018-03-02T06:53:25.618Z,8.50
2018-03-02T06:55:55.257Z,8.70
2018-03-02T06:58:24.185Z,8.70
2018-03-02T07:00:53.077Z,8.90
2018-03-02T07:03:22.099Z,8.90
2018-03-02T07:05:51.004Z,9.00
2018-03-02T07:08:20.106Z,8.90
2018-03-02T07:10:49.730Z,9.10
2018-03-02T07:13:18.671Z,9.10
2018-03-02T07:15:48.701Z,9.30
2018-03-02T07:18:18.315Z,9.50
2018-03-02T07:20:48.173Z,9.50
2018-03-02T07:23:17.039Z,9.50
2018-03-02T07:25:46.910Z,9.60
2018-03-02T07:28:15.858Z,9.60
2018-03-02T07:30:44.866Z,9.70
2018-03-02T07:33:14.622Z,9.80
2018-03-02T07:35:44.474Z,9.90
2018-03-02T07:38:13.351Z,9.90
2018-03-02T07:40:42.267Z,10.00
2018-03-02T07:43:11.343Z,10.10
2018-03-02T07:45:40.409Z,10.00
2018-03-02T07:48:10.305Z,10.10
2018-03-02T07:50:39.990Z,10.30
2018-03-02T07:53:08.828Z,10.30
2018-03-02T07:55:38.000Z,10.30
2018-03-02T07:58:07.158Z,10.40
2018-03-02T08:00:36.419Z,10.30
2018-03-02T08:03:06.044Z,10.30
2018-03-02T08:05:34.923Z,10.30
2018-03-02T08:08:03.785Z,10.40
2018-03-02T08:10:33.226Z,10.60
2018-03-02T08:13:02.117Z,10.70
2018-03-02T08:15:31.292Z,10.70
2018-03-02T08:18:01.194Z,10.80
2018-03-02T08:20:30.126Z,10.80
2018-03-02T08:22:59.894Z,11.30
2018-03-02T08:25:28.776Z,11.30
2018-03-02T08:27:57.706Z,11.30
2018-03-02T08:30:27.421Z,12.00
2018-03-02T08:32:56.597Z,12.00
2018-03-02T08:35:25.555Z,12.50
2018-03-02T08:37:54.506Z,12.50
2018-03-02T08:40:23.512Z,12.90
2018-03-02T08:42:52.801Z,13.30
2018-03-02T08:45:21.769Z,13.40
2018-03-02T08:47:51.514Z,13.50
2018-03-02T08:50:20.382Z,13.50
2018-03-02T08:52:49.330Z,13.90
2018-03-02T08:55:19.200Z,14.30
2018-03-02T08:57:48.127Z,14.20
2018-03-02T09:00:17.062Z,14.60
2018-03-02T09:02:46.012Z,14.60
2018-03-02T09:05:16.049Z,14.60
2018-03-02T09:07:45.713Z,14.70
2018-03-02T09:10:14.640Z,14.60
2018-03-02T09:12:43.593Z,14.90
2018-03-02T09:15:12.390Z,15.00
2018-03-02T09:17:43.299Z,15.10
2018-03-02T09:20:12.453Z,15.10
2018-03-02T09:22:41.496Z,14.90
2018-03-02T09:25:10.879Z,14.80
2018-03-02T09:27:40.793Z,14.90
2018-03-02T09:30:09.678Z,15.00
2018-03-02T09:32:38.698Z,15.20
2018-03-02T09:35:07.653Z,15.40
2018-03-02T09:37:36.700Z,15.50
2018-03-02T09:40:05.596Z,15.30
2018-03-02T09:42:35.502Z,15.60
2018-03-02T09:45:04.425Z,15.60
2018-03-02T09:47:33.462Z,15.60
2018-03-02T09:50:03.104Z,15.60
2018-03-02T09:52:32.280Z,15.60
2018-03-02T09:55:02.086Z,15.40
2018-03-02T09:57:31.769Z,15.40
2018-03-02T10:00:00.658Z,15.40
2018-03-02T10:02:30.325Z,15.40
2018-03-02T10:04:59.606Z,15.40
2018-03-02T10:07:28.599Z,15.40
2018-03-02T10:09:57.509Z,15.40
2018-03-02T10:12:26.452Z,15.50
2018-03-02T10:14:55.594Z,15.60
2018-03-02T10:17:24.716Z,15.70
2018-03-02T10:19:53.666Z,15.60
2018-03-02T10:22:22.657Z,15.70
2018-03-02T10:24:52.464Z,15.70
2018-03-02T10:27:22.459Z,15.90
2018-03-02T10:29:51.357Z,15.80
2018-03-02T10:32:21.126Z,16.30
2018-03-02T10:34:50.161Z,16.20
2018-03-02T10:37:19.051Z,16.40
2018-03-02T10:39:48.090Z,16.70
2018-03-02T10:42:17.923Z,17.80
2018-03-02T10:44:47.139Z,17.80
2018-03-02T10:47:16.073Z,18.20
2018-03-02T10:49:45.083Z,18.50
2018-03-02T10:52:14.066Z,18.40
2018-03-02T10:54:42.926Z,18.30
2018-03-02T10:59:46.847Z,18.90
2018-03-02T11:02:21.692Z,19.20
2018-03-02T11:04:56.822Z,19.20
2018-03-02T11:07:25.750Z,19.20
2018-03-02T11:09:54.613Z,19.50
2018-03-02T11:12:24.246Z,20.10
2018-03-02T11:14:54.196Z,20.40
2018-03-02T11:17:23.220Z,20.30
2018-03-02T11:19:52.124Z,20.60
2018-03-02T11:22:21.917Z,20.80
2018-03-02T11:24:50.872Z,20.80
2018-03-02T11:27:19.933Z,20.80
2018-03-02T11:29:48.864Z,21.30
2018-03-02T11:32:19.862Z,20.90
2018-03-02T11:34:49.784Z,20.80
2018-03-02T11:37:18.765Z,20.70
2018-03-02T11:39:47.773Z,20.60
2018-03-02T11:42:17.106Z,20.60
2018-03-02T11:44:46.300Z,20.70
2018-03-02T11:47:15.408Z,20.70
2018-03-02T11:49:44.607Z,20.80
2018-03-02T11:52:14.285Z,21.10
2018-03-02T11:54:43.388Z,21.10
2018-03-02T11:57:12.472Z,20.90
2018-03-02T11:59:42.239Z,21.00
2018-03-02T12:02:11.106Z,20.70
2018-03-02T12:04:40.676Z,20.80
2018-03-02T12:07:09.888Z,21.00
2018-03-02T12:09:38.861Z,21.00
2018-03-02T12:12:07.813Z,21.10
2018-03-02T12:14:36.771Z,21.40
2018-03-02T12:17:05.724Z,21.60
2018-03-02T12:19:34.695Z,21.40
2018-03-02T12:22:03.611Z,21.20
2018-03-02T12:24:33.620Z,21.60
2018-03-02T12:27:03.347Z,21.80
2018-03-02T12:29:32.230Z,21.80
2018-03-02T12:32:01.325Z,21.70
2018-03-02T12:34:30.620Z,21.40
2018-03-02T12:36:59.821Z,21.20
2018-03-02T12:39:28.745Z,20.90
2018-03-02T12:41:57.824Z,20.80
2018-03-02T12:44:26.892Z,20.60
2018-03-02T12:46:55.993Z,20.30
2018-03-02T12:49:25.712Z,19.70
2018-03-02T12:51:54.708Z,19.60
2018-03-02T12:54:23.634Z,19.50
2018-03-02T12:56:53.923Z,19.60
2018-03-02T12:59:23.659Z,19.60
2018-03-02T13:01:53.584Z,19.40
2018-03-02T13:04:22.489Z,19.40
2018-03-02T13:06:52.380Z,19.20
2018-03-02T13:09:21.827Z,19.10
2018-03-02T13:11:51.244Z,19.00
2018-03-02T13:14:20.450Z,18.80
2018-03-02T13:16:49.368Z,18.70
2018-03-02T13:19:18.232Z,18.60
2018-03-02T13:21:47.149Z,18.50
2018-03-02T13:24:16.645Z,18.40
2018-03-02T13:26:57.272Z,18.20
2018-03-02T13:29:26.595Z,18.10
2018-03-02T13:31:55.741Z,18.00
2018-03-02T13:34:36.452Z,17.80
2018-03-02T13:37:05.262Z,17.70
2018-03-02T13:39:46.186Z,17.70
2018-03-02T13:42:16.106Z,17.60
2018-03-02T13:44:45.878Z,17.50
2018-03-02T13:47:14.878Z,17.50
2018-03-02T13:49:55.866Z,17.40
2018-03-02T13:52:24.743Z,17.40
2018-03-02T13:54:53.710Z,17.30
2018-03-02T13:57:34.452Z,17.20
2018-03-02T14:00:03.359Z,17.10
2018-03-02T14:02:44.041Z,17.00
2018-03-02T14:05:12.821Z,16.90
2018-03-02T14:07:41.782Z,16.90
2018-03-02T14:10:11.786Z,16.70
2018-03-02T14:12:41.057Z,16.70
2018-03-02T14:15:10.271Z,16.60
2018-03-02T14:17:39.469Z,16.60
2018-03-02T14:20:08.412Z,16.50
2018-03-02T14:22:37.505Z,16.50
2018-03-02T14:25:06.432Z,16.50
2018-03-02T14:27:36.084Z,16.50
2018-03-02T14:30:04.997Z,16.40
2018-03-02T14:32:33.942Z,16.40
2018-03-02T14:35:03.598Z,16.40
2018-03-02T14:37:33.082Z,16.40
2018-03-02T14:40:01.968Z,16.40
2018-03-02T14:42:30.960Z,16.30
2018-03-02T14:45:00.914Z,16.10
2018-03-02T14:47:29.809Z,16.10
2018-03-02T14:49:58.793Z,16.10
2018-03-02T14:52:27.907Z,16.00
2018-03-02T14:54:57.009Z,16.00
2018-03-02T14:57:25.965Z,15.90
2018-03-02T14:59:55.629Z,15.70
2018-03-02T15:02:24.853Z,15.70
2018-03-02T15:04:53.694Z,15.70
2018-03-02T15:07:22.830Z,15.60
2018-03-02T15:09:51.786Z,15.60
2018-03-02T15:12:20.949Z,15.60
2018-03-02T15:14:50.236Z,15.50
2018-03-02T15:17:20.316Z,15.30
2018-03-02T15:19:49.303Z,15.30
2018-03-02T15:22:18.530Z,15.20
2018-03-02T15:24:47.954Z,15.10
2018-03-02T15:27:16.882Z,15.10
2018-03-02T15:29:46.719Z,15.10
2018-03-02T15:32:15.966Z,15.10
2018-03-02T15:34:44.962Z,15.20
2018-03-02T15:37:13.875Z,15.40
2018-03-02T15:39:43.644Z,15.80
2018-03-02T15:42:13.363Z,15.90
2018-03-02T15:44:43.402Z,15.90
2018-03-02T15:47:12.439Z,15.90
2018-03-02T15:49:42.177Z,15.50
2018-03-02T15:52:11.464Z,15.40
2018-03-02T15:54:40.622Z,15.40
2018-03-02T15:57:09.586Z,15.60
2018-03-02T15:59:38.821Z,15.60
2018-03-02T16:02:07.736Z,15.50
2018-03-02T16:04:36.985Z,15.20
2018-03-02T16:07:05.979Z,15.10
2018-03-02T16:09:35.238Z,15.00
2018-03-02T16:12:04.196Z,15.00
2018-03-02T16:14:33.260Z,15.10
2018-03-02T16:17:02.213Z,15.20
2018-03-02T16:19:32.605Z,14.80
2018-03-02T16:22:02.215Z,14.70
2018-03-02T16:24:31.098Z,14.70
2018-03-02T16:27:00.023Z,14.70
2018-03-02T16:29:30.035Z,14.90
2018-03-02T16:31:58.885Z,14.90
2018-03-02T16:34:28.594Z,15.10
2018-03-02T16:36:57.464Z,15.10
2018-03-02T16:39:26.497Z,15.00
2018-03-02T16:41:55.501Z,14.90
2018-03-02T16:44:24.458Z,14.80
2018-03-02T16:46:53.489Z,14.70
2018-03-02T16:49:23.294Z,14.50
2018-03-02T16:51:52.321Z,14.50
2018-03-02T16:54:21.473Z,14.40
2018-03-02T16:56:50.344Z,14.60
2018-03-02T16:59:19.511Z,14.60
2018-03-02T17:01:49.232Z,14.70
2018-03-02T17:04:19.117Z,14.70
2018-03-02T17:06:48.976Z,14.80
2018-03-02T17:09:18.313Z,14.80
2018-03-02T17:11:47.505Z,15.10
2018-03-02T17:14:17.096Z,15.30
2018-03-02T17:16:46.310Z,15.30
2018-03-02T17:19:15.570Z,15.20
2018-03-02T17:21:44.833Z,15.20
2018-03-02T17:24:13.860Z,15.30
2018-03-02T17:26:43.823Z,15.20
2018-03-02T17:29:12.880Z,15.20
2018-03-02T17:31:41.775Z,15.40
2018-03-02T17:34:10.593Z,15.60
2018-03-02T17:36:39.463Z,15.60
2018-03-02T17:39:08.373Z,15.50
2018-03-02T17:41:37.301Z,15.20
2018-03-02T17:44:06.813Z,14.90
2018-03-02T17:46:35.998Z,14.70
2018-03-02T17:49:05.167Z,14.60
2018-03-02T17:51:34.521Z,14.60
2018-03-02T17:54:03.607Z,14.80
2018-03-02T17:56:33.245Z,14.80
2018-03-02T17:59:03.328Z,14.70
2018-03-02T18:01:33.312Z,14.70
2018-03-02T18:04:02.561Z,14.70
2018-03-02T18:06:32.786Z,14.80
2018-03-02T18:09:02.223Z,14.80
2018-03-02T18:11:32.316Z,14.90
2018-03-02T18:14:02.649Z,14.60
2018-03-02T18:16:32.639Z,14.40
2018-03-02T18:19:02.349Z,14.40
2018-03-02T18:21:31.886Z,14.40
2018-03-02T18:24:01.963Z,14.20
2018-03-02T18:26:31.252Z,14.20
2018-03-02T18:29:00.754Z,14.30
2018-03-02T18:31:30.060Z,14.80
2018-03-02T18:33:59.360Z,15.20
2018-03-02T18:36:28.616Z,15.40
2018-03-02T18:38:57.976Z,15.10
2018-03-02T18:41:28.048Z,14.80
2018-03-02T18:43:57.433Z,14.80
2018-03-02T18:46:26.655Z,14.70
2018-03-02T18:48:56.028Z,14.60
2018-03-02T18:51:25.327Z,14.40
2018-03-02T18:53:54.549Z,14.50
2018-03-02T18:56:24.333Z,14.30
2018-03-02T18:58:53.564Z,14.30
2018-03-02T19:01:22.974Z,14.30
2018-03-02T19:03:52.422Z,14.40
2018-03-02T19:06:22.278Z,14.70
2018-03-02T19:08:52.252Z,14.80
2018-03-02T19:11:21.523Z,14.80
2018-03-02T19:13:50.806Z,15.00
2018-03-02T19:16:20.286Z,14.90
2018-03-02T19:18:49.710Z,14.70
2018-03-02T19:21:19.116Z,14.90
2018-03-02T19:23:48.442Z,14.90
2018-03-02T19:26:18.431Z,14.90
2018-03-02T19:28:47.902Z,14.90
2018-03-02T19:31:17.163Z,14.70
2018-03-02T19:33:46.541Z,14.50
2018-03-02T19:36:16.626Z,14.10
2018-03-02T19:38:45.948Z,14.10
2018-03-02T19:41:15.278Z,14.20
2018-03-02T19:43:44.724Z,14.20
2018-03-02T19:46:14.028Z,14.00
2018-03-02T19:48:43.433Z,14.00
2018-03-02T19:51:12.652Z,14.00
2018-03-02T19:53:42.030Z,14.10
2018-03-02T19:56:11.349Z,14.10
2018-03-02T19:58:41.268Z,14.10
2018-03-02T20:01:10.765Z,14.10
2018-03-02T20:03:40.158Z,14.10
2018-03-02T20:06:09.761Z,14.00
2018-03-02T20:08:39.581Z,14.20
2018-03-02T20:11:10.862Z,14.20
2018-03-02T20:13:40.460Z,14.10
2018-03-02T20:16:09.902Z,14.10
2018-03-02T20:18:39.244Z,14.10
2018-03-02T20:21:08.556Z,14.00
2018-03-02T20:23:40.544Z,13.90
2018-03-02T20:26:10.309Z,13.80
2018-03-02T20:28:39.621Z,13.70
2018-03-02T20:31:10.029Z,13.60
2018-03-02T20:33:39.417Z,13.50
2018-03-02T20:36:08.951Z,13.50
2018-03-02T20:38:38.152Z,13.90
2018-03-02T20:41:07.334Z,13.90
2018-03-02T20:43:37.522Z,14.00
2018-03-02T20:46:06.780Z,13.90
2018-03-02T20:48:36.081Z,14.00
2018-03-02T20:51:05.444Z,14.30
2018-03-02T20:53:34.660Z,14.50
2018-03-02T20:56:03.977Z,14.70
2018-03-02T20:58:33.994Z,14.50
2018-03-02T21:01:03.594Z,14.40
2018-03-02T21:03:33.037Z,14.80
2018-03-02T21:06:03.508Z,15.50
2018-03-02T21:08:32.738Z,15.40
2018-03-02T21:11:02.347Z,16.00
2018-03-02T21:13:32.322Z,16.90
2018-03-02T21:16:01.494Z,16.90
2018-03-02T21:18:30.721Z,17.10
2018-03-02T21:21:00.599Z,16.90
2018-03-02T21:23:29.696Z,16.80
2018-03-02T21:25:59.110Z,16.90
2018-03-02T21:28:28.059Z,16.80
2018-03-02T21:30:57.132Z,16.70
2018-03-02T21:33:25.997Z,16.60
2018-03-02T21:35:55.060Z,16.40
2018-03-02T21:38:24.959Z,16.60
2018-03-02T21:40:53.948Z,16.60
2018-03-02T21:43:22.789Z,16.60
2018-03-02T21:45:52.674Z,17.00
2018-03-02T21:48:21.554Z,17.00
2018-03-02T21:50:51.176Z,17.10
2018-03-02T21:53:20.022Z,17.10
2018-03-02T21:55:49.729Z,17.30
2018-03-02T21:58:19.548Z,17.20
2018-03-02T22:00:48.460Z,17.20
2018-03-02T22:03:19.113Z,17.20
2018-03-02T22:05:48.245Z,17.20
2018-03-02T22:08:17.251Z,17.00
2018-03-02T22:10:46.118Z,16.90
2018-03-02T22:13:15.080Z,16.80
2018-03-02T22:15:44.073Z,16.70
2018-03-02T22:18:13.039Z,16.60
2018-03-02T22:20:42.078Z,16.80
2018-03-02T22:23:11.257Z,16.70
2018-03-02T22:25:40.134Z,16.70
2018-03-02T22:28:09.884Z,16.70
2018-03-02T22:30:39.602Z,16.50
2018-03-02T22:33:08.431Z,16.40
2018-03-02T22:35:37.395Z,16.40
2018-03-02T22:38:06.282Z,16.20
2018-03-02T22:40:35.143Z,16.20
2018-03-02T22:43:04.018Z,16.40
2018-03-02T22:45:33.163Z,16.30
2018-03-02T22:48:02.288Z,15.90
2018-03-02T22:50:32.062Z,15.70
2018-03-02T22:53:03.456Z,15.70
2018-03-02T22:55:35.997Z,15.30
2018-03-02T22:58:08.864Z,15.30
2018-03-02T23:00:40.257Z,15.60
2018-03-02T23:03:12.453Z,15.70
2018-03-02T23:05:44.504Z,15.60
2018-03-02T23:08:16.704Z,15.40
2018-03-02T23:10:48.932Z,15.30
2018-03-02T23:13:24.087Z,15.10
2018-03-02T23:15:54.950Z,14.90
2018-03-02T23:18:23.858Z,14.90
2018-03-02T23:20:54.147Z,14.80
2018-03-02T23:23:23.024Z,14.90
2018-03-02T23:25:52.580Z,14.90
2018-03-02T23:28:21.628Z,14.90
2018-03-02T23:30:50.668Z,15.00
2018-03-02T23:33:20.346Z,14.80
2018-03-02T23:35:49.487Z,14.80
2018-03-02T23:38:18.299Z,14.60
2018-03-02T23:40:47.181Z,14.60
2018-03-02T23:43:16.041Z,14.70
2018-03-02T23:45:44.951Z,14.70
2018-03-02T23:48:13.760Z,14.60
2018-03-02T23:50:43.515Z,15.20
2018-03-02T23:53:12.476Z,15.10
2018-03-02T23:55:41.617Z,15.30
2018-03-02T23:58:10.876Z,15.30
